Adventure of The Seas — C6SA3 — position and weather

sailwx.info

Track history (hours):
 
Tides and Currents Weather Stations Pressure Air Temp Water Temp Dewpoint Dewpoint Depression Visibility Wind Speed Wind Dir Waves Ship Positions

Adventure of The Seas

Operator: Royal Caribbean Cruises Ltd

Last reported at 2017-Apr-27 06:00 UTC. Time now 2017-Apr-27 18:48 UTC.
Position N 13°24' W 060°24'.

Type: Passenger vessel. MMSI: 311263000.

Wind from 100 at 22 knots

Barometer 1013.0 mb
Air temperature 27.0 ° C
Visibility: greater than 10.8 NM
Dewpoint 22.8 ° C
Water temperature 29.0 ° C

Date/timePositionNaut miles runAvg speedWind from/ knotsBaromVisibWave heightAir tempDewpointWater temp
2017-Apr-27 06:00N 13°24' W 060°24'47 7.9 100 / 221013.010.8 27.022.829.0
2017-Apr-27 00:00N 13°48' W 061°06'99 5.5 080 / 171016.010.8 26.023.227.0
2017-Apr-26 06:00N 15°18' W 061°48'5613.6 090 / 221013.010.8 27.022.829.0
2017-Apr-26 01:52N 16°12' W 062°05'513.9
2017-Apr-26 01:30N 16°17' W 062°05'714.3
2017-Apr-26 01:00N 16°24' W 062°06'714.6
2017-Apr-26 00:30N 16°31' W 062°05'714.6
2017-Apr-26 00:01N 16°38' W 062°04'4256.8
2017-Apr-26 00:00N 16°36' W 062°00'1020.6 100 / 281015.0 5.4 27.022.826.0
2017-Apr-25 23:31N 16°46' W 062°03'714.7
2017-Apr-25 23:01N 16°53' W 062°02'815.0
2017-Apr-25 22:30N 17°00' W 062°01'713.3
2017-Apr-25 22:01N 17°07' W 062°00'510.6
2017-Apr-25 21:30N 17°09' W 061°55'4 8.1
2017-Apr-25 21:00N 17°07' W 061°51'0 0.3
2017-Apr-25 20:29N 17°07' W 061°51'0 0.0
2017-Apr-25 19:59N 17°07' W 061°51'0 0.0
2017-Apr-25 19:29N 17°07' W 061°51'0 0.0
2017-Apr-25 18:59N 17°07' W 061°51'0 0.0
2017-Apr-25 18:29N 17°07' W 061°51'0 0.0
2017-Apr-25 17:59N 17°07' W 061°51'0 0.0
2017-Apr-25 17:29N 17°07' W 061°51'0 0.0
2017-Apr-25 16:59N 17°07' W 061°51'0 0.0
2017-Apr-25 16:29N 17°07' W 061°51'0 0.0
2017-Apr-25 15:59N 17°07' W 061°51'0 0.0
2017-Apr-25 15:29N 17°07' W 061°51'0 0.0
2017-Apr-25 14:59N 17°07' W 061°51'0 0.0
2017-Apr-25 14:29N 17°07' W 061°51'0 0.0
2017-Apr-25 13:29N 17°07' W 061°51'0 0.0
2017-Apr-25 12:59N 17°07' W 061°51'0 0.0
2017-Apr-25 12:29N 17°07' W 061°51'0 0.0
2017-Apr-25 11:59N 17°07' W 061°51'1 1.5
2017-Apr-25 11:31N 17°07' W 061°52'4 8.4
2017-Apr-25 11:00N 17°09' W 061°56'4 8.4
2017-Apr-25 10:30N 17°11' W 061°60'4 8.3
2017-Apr-25 10:00N 17°13' W 062°04'4 8.5
2017-Apr-25 09:30N 17°15' W 062°07'4 8.3
2017-Apr-25 09:01N 17°18' W 062°09'4 8.6
2017-Apr-25 08:30N 17°23' W 062°10'4 8.8
2017-Apr-25 08:00N 17°27' W 062°11'5 9.4
2017-Apr-25 07:31N 17°31' W 062°14'4 8.3
2017-Apr-25 07:01N 17°35' W 062°14'4 7.1
2017-Apr-25 06:31N 17°36' W 062°18'4 7.4
2017-Apr-25 06:01N 17°35' W 062°21'6353.3
2017-Apr-25 06:00N 17°30' W 062°18'816.9 100 / 221013.010.8 26.021.828.0
2017-Apr-25 05:30N 17°34' W 062°25'4 7.8
2017-Apr-25 05:00N 17°33' W 062°29'4 7.7
2017-Apr-25 04:30N 17°33' W 062°33'20 4.5
2017-Apr-25 00:00N 17°18' W 062°48'25 1.4 090 / 231017.0 5.4 26.021.826.0
2017-Apr-24 06:00N 17°00' W 063°06'42 7.4 090 / 261014.0 27.024.327.0
2017-Apr-24 00:20N 17°42' W 063°07'1 3.7
2017-Apr-24 00:00N 17°42' W 063°06'3444.7 080 / 291014.0 5.4 27.021.326.0
2017-Apr-23 23:59N 17°44' W 063°07'4 7.0
2017-Apr-23 23:29N 17°48' W 063°07'3 6.8
2017-Apr-23 22:59N 17°51' W 063°07'3 6.5
2017-Apr-23 22:30N 17°55' W 063°06'3 6.4
2017-Apr-23 22:00N 17°58' W 063°06'3 5.6
2017-Apr-23 21:29N 18°00' W 063°05'1 0.1
2017-Apr-23 11:34N 18°00' W 063°03'0 6.2
2017-Apr-23 11:30N 18°00' W 063°03'916.0
2017-Apr-23 10:57N 18°01' W 063°13'919.0
2017-Apr-23 10:30N 18°03' W 063°21'1018.9
2017-Apr-23 09:59N 18°04' W 063°32'6818.6
2017-Apr-23 06:20N 18°11' W 064°43'1131.8
2017-Apr-23 06:00N 18°12' W 064°54'4542.4 090 / 201014.010.8 26.021.826.0
2017-Apr-23 05:59N 18°12' W 064°50'7218.0
2017-Apr-23 01:58N 18°34' W 066°02'715.5
2017-Apr-23 01:30N 18°30' W 066°08'2 4.7
2017-Apr-23 00:59N 18°28' W 066°06'0 0.0
2017-Apr-23 00:26N 18°28' W 066°06'0 0.0
2017-Apr-22 23:59N 18°28' W 066°06'0 0.0
2017-Apr-22 23:05N 18°28' W 066°06'0 0.0
2017-Apr-22 22:59N 18°28' W 066°06'0 0.0
2017-Apr-22 22:20N 18°28' W 066°06'0 0.0
2017-Apr-22 21:47N 18°28' W 066°06'0 0.0
2017-Apr-22 21:26N 18°28' W 066°06'4 8.0
2017-Apr-22 21:00N 18°24' W 066°06'465.6 100 / 151015.010.8 27.025.726.0
2017-Apr-22 20:56N 18°28' W 066°06'0 0.0
2017-Apr-22 20:26N 18°28' W 066°06'0 0.0
2017-Apr-22 19:53N 18°28' W 066°06'0 0.0
2017-Apr-22 19:29N 18°28' W 066°06'0 0.0
2017-Apr-22 18:53N 18°28' W 066°06'0 0.0
2017-Apr-22 18:08N 18°28' W 066°06'0 0.0
2017-Apr-22 17:56N 18°28' W 066°06'0 0.0
2017-Apr-22 17:29N 18°28' W 066°06'0 0.0
2017-Apr-22 16:56N 18°28' W 066°06'0 0.0
2017-Apr-22 16:26N 18°28' W 066°06'0 0.0
2017-Apr-22 15:50N 18°28' W 066°06'0 0.0
2017-Apr-22 15:26N 18°28' W 066°06'0 0.0
2017-Apr-22 14:47N 18°28' W 066°06'0 0.0
2017-Apr-22 14:20N 18°28' W 066°06'0 0.0
2017-Apr-22 13:23N 18°28' W 066°06'0 0.0
2017-Apr-22 12:59N 18°28' W 066°06'0 0.0
2017-Apr-22 12:26N 18°28' W 066°06'0 0.0
2017-Apr-22 11:44N 18°28' W 066°06'0 0.0
2017-Apr-22 11:05N 18°28' W 066°06'0 0.0
2017-Apr-22 10:44N 18°28' W 066°06'0 0.0
2017-Apr-22 09:56N 18°28' W 066°06'0 0.0
2017-Apr-22 09:30N 18°28' W 066°06'2 3.8
2017-Apr-22 09:00N 18°29' W 066°08'914.5
2017-Apr-22 08:24N 18°37' W 066°10'4217.4
2017-Apr-22 06:00N 18°36' W 066°54'23415.6 090 / 221014.010.8 26.020.227.0
2017-Apr-21 15:00N 15°12' W 068°54'14416.0 090 / 201013.0 5.4 26.023.226.0
2017-Apr-21 06:00N 13°00' W 069°54'53 2.3 090 / 221011.010.8 27.024.328.0
2017-Apr-20 07:00N 12°12' W 069°30'51 2.1 100 / 191012.010.8 27.024.328.0
2017-Apr-19 07:00N 12°42' W 068°48'8812.6 110 / 251011.010.8 27.024.328.0
2017-Apr-19 00:00N 13°36' W 067°36'16013.3 090 / 171015.0 5.4 26.023.226.0
2017-Apr-18 12:00N 15°12' W 065°24'194 7.1 090 / 211015.010.8 25.023.626.0
2017-Apr-17 08:29N 17°35' W 063°07'511.5
2017-Apr-17 08:00N 17°40' W 063°08'611.1
2017-Apr-17 07:29N 17°44' W 063°12'511.2
2017-Apr-17 07:00N 17°46' W 063°17'  
Track history (hours):
 
Tides and Currents Weather Stations Pressure Air Temp Water Temp Dewpoint Dewpoint Depression Visibility Wind Speed Wind Dir Waves Ship Positions

Adventure of The Seas

Operator: Royal Caribbean Cruises Ltd

Last reported at 2017-Apr-27 06:00 UTC. Time now 2017-Apr-27 18:48 UTC.
Position N 13°24' W 060°24'.

Type: Passenger vessel. MMSI: 311263000.

Wind from 100 at 22 knots

Barometer 1013.0 mb
Air temperature 27.0 ° C
Visibility: greater than 10.8 NM
Dewpoint 22.8 ° C
Water temperature 29.0 ° C

Date/timePositionNaut miles runAvg speedWind from/ knotsBaromVisibWave heightAir tempDewpointWater temp
2017-Apr-27 06:00N 13°24' W 060°24'47 7.9 100 / 221013.010.8 27.022.829.0
2017-Apr-27 00:00N 13°48' W 061°06'99 5.5 080 / 171016.010.8 26.023.227.0
2017-Apr-26 06:00N 15°18' W 061°48'5613.6 090 / 221013.010.8 27.022.829.0
2017-Apr-26 01:52N 16°12' W 062°05'513.9
2017-Apr-26 01:30N 16°17' W 062°05'714.3
2017-Apr-26 01:00N 16°24' W 062°06'714.6
2017-Apr-26 00:30N 16°31' W 062°05'714.6
2017-Apr-26 00:01N 16°38' W 062°04'4256.8
2017-Apr-26 00:00N 16°36' W 062°00'1020.6 100 / 281015.0 5.4 27.022.826.0
2017-Apr-25 23:31N 16°46' W 062°03'714.7
2017-Apr-25 23:01N 16°53' W 062°02'815.0
2017-Apr-25 22:30N 17°00' W 062°01'713.3
2017-Apr-25 22:01N 17°07' W 062°00'510.6
2017-Apr-25 21:30N 17°09' W 061°55'4 8.1
2017-Apr-25 21:00N 17°07' W 061°51'0 0.3
2017-Apr-25 20:29N 17°07' W 061°51'0 0.0
2017-Apr-25 19:59N 17°07' W 061°51'0 0.0
2017-Apr-25 19:29N 17°07' W 061°51'0 0.0
2017-Apr-25 18:59N 17°07' W 061°51'0 0.0
2017-Apr-25 18:29N 17°07' W 061°51'0 0.0
2017-Apr-25 17:59N 17°07' W 061°51'0 0.0
2017-Apr-25 17:29N 17°07' W 061°51'0 0.0
2017-Apr-25 16:59N 17°07' W 061°51'0 0.0
2017-Apr-25 16:29N 17°07' W 061°51'0 0.0
2017-Apr-25 15:59N 17°07' W 061°51'0 0.0
2017-Apr-25 15:29N 17°07' W 061°51'0 0.0
2017-Apr-25 14:59N 17°07' W 061°51'0 0.0
2017-Apr-25 14:29N 17°07' W 061°51'0 0.0
2017-Apr-25 13:29N 17°07' W 061°51'0 0.0
2017-Apr-25 12:59N 17°07' W 061°51'0 0.0
2017-Apr-25 12:29N 17°07' W 061°51'0 0.0
2017-Apr-25 11:59N 17°07' W 061°51'1 1.5
2017-Apr-25 11:31N 17°07' W 061°52'4 8.4
2017-Apr-25 11:00N 17°09' W 061°56'4 8.4
2017-Apr-25 10:30N 17°11' W 061°60'4 8.3
2017-Apr-25 10:00N 17°13' W 062°04'4 8.5
2017-Apr-25 09:30N 17°15' W 062°07'4 8.3
2017-Apr-25 09:01N 17°18' W 062°09'4 8.6
2017-Apr-25 08:30N 17°23' W 062°10'4 8.8
2017-Apr-25 08:00N 17°27' W 062°11'5 9.4
2017-Apr-25 07:31N 17°31' W 062°14'4 8.3
2017-Apr-25 07:01N 17°35' W 062°14'4 7.1
2017-Apr-25 06:31N 17°36' W 062°18'4 7.4
2017-Apr-25 06:01N 17°35' W 062°21'6353.3
2017-Apr-25 06:00N 17°30' W 062°18'816.9 100 / 221013.010.8 26.021.828.0
2017-Apr-25 05:30N 17°34' W 062°25'4 7.8
2017-Apr-25 05:00N 17°33' W 062°29'4 7.7
2017-Apr-25 04:30N 17°33' W 062°33'20 4.5
2017-Apr-25 00:00N 17°18' W 062°48'25 1.4 090 / 231017.0 5.4 26.021.826.0
2017-Apr-24 06:00N 17°00' W 063°06'42 7.4 090 / 261014.0 27.024.327.0
2017-Apr-24 00:20N 17°42' W 063°07'1 3.7
2017-Apr-24 00:00N 17°42' W 063°06'3444.7 080 / 291014.0 5.4 27.021.326.0
2017-Apr-23 23:59N 17°44' W 063°07'4 7.0
2017-Apr-23 23:29N 17°48' W 063°07'3 6.8
2017-Apr-23 22:59N 17°51' W 063°07'3 6.5
2017-Apr-23 22:30N 17°55' W 063°06'3 6.4
2017-Apr-23 22:00N 17°58' W 063°06'3 5.6
2017-Apr-23 21:29N 18°00' W 063°05'1 0.1
2017-Apr-23 11:34N 18°00' W 063°03'0 6.2
2017-Apr-23 11:30N 18°00' W 063°03'916.0
2017-Apr-23 10:57N 18°01' W 063°13'919.0
2017-Apr-23 10:30N 18°03' W 063°21'1018.9
2017-Apr-23 09:59N 18°04' W 063°32'6818.6
2017-Apr-23 06:20N 18°11' W 064°43'1131.8
2017-Apr-23 06:00N 18°12' W 064°54'4542.4 090 / 201014.010.8 26.021.826.0
2017-Apr-23 05:59N 18°12' W 064°50'7218.0
2017-Apr-23 01:58N 18°34' W 066°02'715.5
2017-Apr-23 01:30N 18°30' W 066°08'2 4.7
2017-Apr-23 00:59N 18°28' W 066°06'0 0.0
2017-Apr-23 00:26N 18°28' W 066°06'0 0.0
2017-Apr-22 23:59N 18°28' W 066°06'0 0.0
2017-Apr-22 23:05N 18°28' W 066°06'0 0.0
2017-Apr-22 22:59N 18°28' W 066°06'0 0.0
2017-Apr-22 22:20N 18°28' W 066°06'0 0.0
2017-Apr-22 21:47N 18°28' W 066°06'0 0.0
2017-Apr-22 21:26N 18°28' W 066°06'4 8.0
2017-Apr-22 21:00N 18°24' W 066°06'465.6 100 / 151015.010.8 27.025.726.0
2017-Apr-22 20:56N 18°28' W 066°06'0 0.0
2017-Apr-22 20:26N 18°28' W 066°06'0 0.0
2017-Apr-22 19:53N 18°28' W 066°06'0 0.0
2017-Apr-22 19:29N 18°28' W 066°06'0 0.0
2017-Apr-22 18:53N 18°28' W 066°06'0 0.0
2017-Apr-22 18:08N 18°28' W 066°06'0 0.0
2017-Apr-22 17:56N 18°28' W 066°06'0 0.0
2017-Apr-22 17:29N 18°28' W 066°06'0 0.0
2017-Apr-22 16:56N 18°28' W 066°06'0 0.0
2017-Apr-22 16:26N 18°28' W 066°06'0 0.0
2017-Apr-22 15:50N 18°28' W 066°06'0 0.0
2017-Apr-22 15:26N 18°28' W 066°06'0 0.0
2017-Apr-22 14:47N 18°28' W 066°06'0 0.0
2017-Apr-22 14:20N 18°28' W 066°06'0 0.0
2017-Apr-22 13:23N 18°28' W 066°06'0 0.0
2017-Apr-22 12:59N 18°28' W 066°06'0 0.0
2017-Apr-22 12:26N 18°28' W 066°06'0 0.0
2017-Apr-22 11:44N 18°28' W 066°06'0 0.0
2017-Apr-22 11:05N 18°28' W 066°06'0 0.0
2017-Apr-22 10:44N 18°28' W 066°06'0 0.0
2017-Apr-22 09:56N 18°28' W 066°06'0 0.0
2017-Apr-22 09:30N 18°28' W 066°06'2 3.8
2017-Apr-22 09:00N 18°29' W 066°08'914.5
2017-Apr-22 08:24N 18°37' W 066°10'4217.4
2017-Apr-22 06:00N 18°36' W 066°54'23415.6 090 / 221014.010.8 26.020.227.0
2017-Apr-21 15:00N 15°12' W 068°54'14416.0 090 / 201013.0 5.4 26.023.226.0
2017-Apr-21 06:00N 13°00' W 069°54'53 2.3 090 / 221011.010.8 27.024.328.0
2017-Apr-20 07:00N 12°12' W 069°30'51 2.1 100 / 191012.010.8 27.024.328.0
2017-Apr-19 07:00N 12°42' W 068°48'8812.6 110 / 251011.010.8 27.024.328.0
2017-Apr-19 00:00N 13°36' W 067°36'16013.3 090 / 171015.0 5.4 26.023.226.0
2017-Apr-18 12:00N 15°12' W 065°24'194 7.1 090 / 211015.010.8 25.023.626.0
2017-Apr-17 08:29N 17°35' W 063°07'511.5
2017-Apr-17 08:00N 17°40' W 063°08'611.1
2017-Apr-17 07:29N 17°44' W 063°12'511.2
2017-Apr-17 07:00N 17°46' W 063°17'  

Dump ship's entire track history